Time;durP1;ratioP1;P1;durP2;ratioP2;P2;SDS_P1;SDS_P2;PMS_P1;PMS_P2;Temp;Humidity;BMP_temperature;BMP_pressure;BME280_temperature;BME280_humidity;BME280_pressure;Samples;Min_cycle;Max_cycle;Signal;HPM_P1;HPM_P2
2023/07/27 00:00:16;;;;;;;4.43;2.30;;;14.80;99.90;;;;;;5006926;28;20033;-64
2023/07/27 00:02:42;;;;;;;4.78;2.33;;;14.80;99.90;;;;;;5008423;28;20125;-65
2023/07/27 00:05:07;;;;;;;3.80;2.25;;;14.80;99.90;;;;;;5005895;28;20033;-65
2023/07/27 00:07:33;;;;;;;4.22;2.22;;;14.80;99.90;;;;;;5009902;28;20026;-65
2023/07/27 00:09:59;;;;;;;3.45;2.45;;;14.80;99.90;;;;;;5010471;28;20032;-65
2023/07/27 00:12:24;;;;;;;4.18;2.55;;;14.80;99.90;;;;;;5010461;28;20045;-67
2023/07/27 00:14:50;;;;;;;5.05;2.70;;;14.80;99.90;;;;;;4999395;28;20387;-65
2023/07/27 00:17:16;;;;;;;4.18;2.25;;;14.80;99.90;;;;;;5004739;28;20026;-66
2023/07/27 00:19:41;;;;;;;3.50;2.40;;;14.90;99.90;;;;;;5001971;28;20026;-64
2023/07/27 00:22:07;;;;;;;5.97;2.20;;;14.80;99.90;;;;;;4999417;28;20034;-65
2023/07/27 00:24:34;;;;;;;5.13;2.67;;;14.80;99.90;;;;;;5004613;28;20040;-66
2023/07/27 00:27:00;;;;;;;4.03;2.15;;;14.80;99.90;;;;;;5005957;28;20415;-67
2023/07/27 00:29:25;;;;;;;3.22;2.10;;;14.80;99.90;;;;;;5003618;28;20025;-65
2023/07/27 00:31:51;;;;;;;8.07;2.47;;;14.80;99.90;;;;;;5000438;28;21072;-66
2023/07/27 00:34:17;;;;;;;6.03;2.58;;;14.70;99.90;;;;;;5005834;28;20010;-65
2023/07/27 00:36:43;;;;;;;3.67;2.50;;;14.70;99.90;;;;;;4971878;28;20042;-65
2023/07/27 00:39:10;;;;;;;4.90;2.78;;;14.60;99.90;;;;;;5005758;28;20505;-64
2023/07/27 00:41:39;;;;;;;4.65;2.45;;;14.60;99.90;;;;;;5000887;28;22238;-65
2023/07/27 00:44:05;;;;;;;5.32;2.15;;;14.60;99.90;;;;;;5006001;28;20088;-64
2023/07/27 00:46:31;;;;;;;9.23;2.53;;;14.50;99.90;;;;;;4997475;28;20439;-65
2023/07/27 00:48:56;;;;;;;6.32;2.58;;;14.50;99.90;;;;;;5005938;28;20559;-65
2023/07/27 00:51:22;;;;;;;6.88;2.78;;;14.50;99.90;;;;;;5005821;28;20191;-66
2023/07/27 00:53:47;;;;;;;6.07;2.75;;;14.40;99.90;;;;;;5006763;28;20051;-65
2023/07/27 00:56:14;;;;;;;4.22;2.20;;;14.40;99.90;;;;;;5007093;28;20480;-64
2023/07/27 00:58:43;;;;;;;4.55;2.05;;;14.40;99.90;;;;;;5003187;28;20499;-65
2023/07/27 01:01:10;;;;;;;4.20;2.28;;;14.30;99.90;;;;;;4996285;28;20030;-65
2023/07/27 01:03:37;;;;;;;4.53;2.65;;;14.30;99.90;;;;;;5005921;28;20479;-66
2023/07/27 01:06:03;;;;;;;4.15;2.47;;;14.30;99.90;;;;;;5007991;28;20084;-65
2023/07/27 01:08:30;;;;;;;4.47;2.20;;;14.30;99.90;;;;;;4995001;28;20022;-66
2023/07/27 01:11:14;;;;;;;8.40;1.98;;;14.30;99.90;;;;;;5002697;28;20396;-65
2023/07/27 01:13:47;;;;;;;4.38;2.28;;;14.20;99.90;;;;;;5003609;28;20314;-64
2023/07/27 01:16:23;;;;;;;5.07;2.38;;;14.30;99.90;;;;;;5005118;28;20065;-65
2023/07/27 01:18:57;;;;;;;9.07;2.25;;;14.30;99.90;;;;;;5004300;28;20032;-66
2023/07/27 01:21:30;;;;;;;4.60;2.22;;;14.40;99.90;;;;;;5004447;28;20053;-65
2023/07/27 01:24:26;;;;;;;3.88;2.28;;;14.40;99.90;;;;;;4996021;28;20038;-67
2023/07/27 01:27:16;;;;;;;3.13;2.20;;;14.40;99.90;;;;;;5003351;28;20022;-65
2023/07/27 01:30:19;;;;;;;4.60;2.33;;;14.40;99.90;;;;;;5000992;28;20507;-63
2023/07/27 01:32:50;;;;;;;4.43;2.10;;;14.50;99.90;;;;;;5007145;28;20105;-65
2023/07/27 01:35:18;;;;;;;5.07;2.13;;;14.40;99.90;;;;;;5012082;28;20151;-64
2023/07/27 01:37:47;;;;;;;4.93;2.38;;;14.50;99.90;;;;;;4994238;28;20133;-63
2023/07/27 01:40:14;;;;;;;4.20;2.75;;;14.40;99.90;;;;;;5008414;28;20117;-65
2023/07/27 01:42:41;;;;;;;6.70;2.00;;;14.40;99.90;;;;;;5011155;28;20552;-66
2023/07/27 01:45:09;;;;;;;4.72;2.20;;;14.40;99.90;;;;;;4994340;28;20117;-65
2023/07/27 01:47:36;;;;;;;7.50;2.42;;;14.40;99.90;;;;;;5012306;28;20482;-65
2023/07/27 01:50:03;;;;;;;3.80;1.90;;;14.40;99.90;;;;;;5010612;28;20065;-65
2023/07/27 01:52:29;;;;;;;5.47;2.75;;;14.40;99.90;;;;;;5011950;28;20036;-65
2023/07/27 01:54:56;;;;;;;4.43;2.10;;;14.40;99.90;;;;;;5011708;28;20037;-65
2023/07/27 01:57:23;;;;;;;4.38;2.33;;;14.50;99.90;;;;;;4996931;28;20029;-65
2023/07/27 01:59:49;;;;;;;3.65;1.83;;;14.50;99.90;;;;;;5009653;28;20057;-64
2023/07/27 02:02:15;;;;;;;3.30;2.15;;;14.60;99.90;;;;;;5004973;28;20125;-65
2023/07/27 02:04:41;;;;;;;4.25;2.25;;;14.60;99.90;;;;;;4987902;28;20109;-65
2023/07/27 02:07:07;;;;;;;3.67;2.10;;;14.60;99.90;;;;;;5004801;28;20486;-67
2023/07/27 02:09:33;;;;;;;3.03;1.98;;;14.60;99.90;;;;;;5004505;28;20069;-65
2023/07/27 02:12:05;;;;;;;4.75;2.30;;;14.60;99.90;;;;;;5006626;28;20080;-65
2023/07/27 02:14:45;;;;;;;3.50;2.20;;;14.60;99.90;;;;;;4989533;28;20168;-64
2023/07/27 02:17:27;;;;;;;4.70;1.95;;;14.60;99.90;;;;;;4989137;28;20037;-65
2023/07/27 02:19:57;;;;;;;3.80;2.00;;;14.60;99.90;;;;;;4990060;28;20026;-66
2023/07/27 02:22:24;;;;;;;3.05;2.20;;;14.60;99.90;;;;;;5004456;28;20065;-66
2023/07/27 02:24:50;;;;;;;5.18;2.03;;;14.60;99.90;;;;;;4993004;28;20040;-65
2023/07/27 02:27:15;;;;;;;3.78;2.05;;;14.70;99.90;;;;;;5008022;28;20129;-65
2023/07/27 02:29:41;;;;;;;5.35;2.00;;;14.70;99.90;;;;;;4999431;28;20037;-66
2023/07/27 02:32:07;;;;;;;3.53;2.20;;;14.70;99.90;;;;;;5008322;28;20045;-66
2023/07/27 02:34:33;;;;;;;2.88;2.13;;;14.70;99.90;;;;;;5003692;28;20030;-65
2023/07/27 02:36:58;;;;;;;4.53;2.05;;;14.70;99.90;;;;;;4989666;28;20141;-65
2023/07/27 02:39:24;;;;;;;5.65;2.28;;;14.70;99.90;;;;;;5006555;28;20026;-65
2023/07/27 02:41:49;;;;;;;3.45;2.47;;;14.80;99.90;;;;;;5009396;28;20069;-65
2023/07/27 02:44:15;;;;;;;3.33;1.90;;;14.70;99.90;;;;;;5006580;28;20041;-66
2023/07/27 02:46:40;;;;;;;3.95;2.20;;;14.70;99.90;;;;;;5005872;28;20400;-65
2023/07/27 02:49:06;;;;;;;3.83;2.10;;;14.80;99.90;;;;;;5005379;28;20057;-66
2023/07/27 02:51:31;;;;;;;5.95;2.63;;;14.80;99.90;;;;;;5001112;28;20037;-66
2023/07/27 02:53:57;;;;;;;3.88;2.00;;;14.70;99.90;;;;;;5010034;28;20029;-65
2023/07/27 02:56:24;;;;;;;3.40;1.95;;;14.80;99.90;;;;;;5008406;28;20030;-65
2023/07/27 02:58:50;;;;;;;3.05;2.45;;;14.80;99.90;;;;;;4998912;28;20025;-65
2023/07/27 03:01:15;;;;;;;4.78;2.53;;;14.80;99.90;;;;;;5003930;28;20042;-65
2023/07/27 03:03:41;;;;;;;3.83;2.28;;;14.90;99.90;;;;;;5003686;28;20041;-65
2023/07/27 03:06:07;;;;;;;8.27;2.95;;;14.90;99.90;;;;;;5008413;28;20396;-65
2023/07/27 03:08:32;;;;;;;5.50;2.33;;;14.90;99.90;;;;;;5008635;28;20048;-64
2023/07/27 03:11:03;;;;;;;5.50;2.35;;;14.90;99.90;;;;;;5007353;28;20124;-64
2023/07/27 03:13:29;;;;;;;3.70;2.08;;;14.90;99.90;;;;;;5007193;28;20049;-67
2023/07/27 03:15:55;;;;;;;7.25;2.08;;;14.90;99.90;;;;;;5006376;28;20053;-65
2023/07/27 03:18:21;;;;;;;3.78;1.83;;;14.90;99.90;;;;;;5007030;28;20479;-66
2023/07/27 03:20:47;;;;;;;2.60;1.83;;;14.90;99.90;;;;;;5007195;28;20042;-65
2023/07/27 03:23:13;;;;;;;6.07;2.75;;;14.90;99.90;;;;;;5005792;28;20096;-67
2023/07/27 03:25:38;;;;;;;5.90;2.80;;;14.80;99.90;;;;;;5000104;28;20101;-66
2023/07/27 03:28:06;;;;;;;3.42;2.20;;;14.80;99.90;;;;;;5008886;28;20568;-65
2023/07/27 03:30:33;;;;;;;4.43;2.28;;;14.80;99.90;;;;;;5008874;28;20021;-64
2023/07/27 03:32:59;;;;;;;5.65;2.60;;;14.80;99.90;;;;;;5010085;28;20109;-65
2023/07/27 03:35:24;;;;;;;7.43;2.80;;;14.80;99.90;;;;;;5009734;28;20117;-66
2023/07/27 03:37:51;;;;;;;5.97;2.25;;;14.70;99.90;;;;;;5005299;28;20149;-67
2023/07/27 03:40:17;;;;;;;5.75;2.75;;;14.70;99.90;;;;;;4993702;28;20046;-65
2023/07/27 03:42:43;;;;;;;6.25;2.15;;;14.70;99.90;;;;;;5010773;28;20044;-66
2023/07/27 03:45:09;;;;;;;3.95;2.00;;;14.60;99.90;;;;;;5009749;28;20029;-65
2023/07/27 03:47:34;;;;;;;5.22;2.97;;;14.70;99.90;;;;;;5009469;28;20032;-65
2023/07/27 03:50:00;;;;;;;7.68;2.58;;;14.70;99.90;;;;;;5009113;28;20534;-67
2023/07/27 03:52:25;;;;;;;8.43;3.10;;;14.60;99.90;;;;;;5006487;28;20036;-65
2023/07/27 03:54:51;;;;;;;9.02;3.00;;;14.60;99.90;;;;;;5004367;28;20411;-64
2023/07/27 03:57:17;;;;;;;4.43;2.45;;;14.60;99.90;;;;;;5008917;28;20030;-66
2023/07/27 03:59:42;;;;;;;4.45;3.08;;;14.50;99.90;;;;;;5006125;28;20040;-65
2023/07/27 04:02:09;;;;;;;9.68;2.90;;;14.50;99.90;;;;;;5001649;28;20037;-66
2023/07/27 04:04:34;;;;;;;11.40;3.35;;;14.50;99.90;;;;;;5004397;28;20022;-65
2023/07/27 04:07:00;;;;;;;4.18;2.80;;;14.50;99.90;;;;;;5006875;28;20049;-66
2023/07/27 04:09:25;;;;;;;3.50;2.22;;;14.50;99.90;;;;;;5005703;28;20084;-66
2023/07/27 04:11:52;;;;;;;6.32;2.67;;;14.40;99.90;;;;;;5008044;28;20049;-66
2023/07/27 04:14:18;;;;;;;5.45;2.92;;;14.40;99.90;;;;;;5002815;28;20018;-67
2023/07/27 04:16:43;;;;;;;6.05;3.10;;;14.40;99.90;;;;;;5007359;28;20029;-67
2023/07/27 04:19:09;;;;;;;8.50;2.53;;;14.40;99.90;;;;;;5006555;28;20495;-66
2023/07/27 04:21:34;;;;;;;7.95;3.28;;;14.40;99.90;;;;;;5005655;28;20538;-65
2023/07/27 04:24:00;;;;;;;7.05;3.45;;;14.40;99.90;;;;;;5007131;28;20525;-67
2023/07/27 04:26:26;;;;;;;5.80;3.13;;;14.40;99.90;;;;;;5007873;28;20018;-66
2023/07/27 04:28:51;;;;;;;8.90;2.75;;;14.40;99.90;;;;;;5007102;28;20105;-66
2023/07/27 04:31:17;;;;;;;5.90;3.30;;;14.40;99.90;;;;;;5006432;28;20487;-65
2023/07/27 04:33:42;;;;;;;5.95;3.15;;;14.40;99.90;;;;;;4998337;28;20027;-66
2023/07/27 04:36:11;;;;;;;6.07;3.15;;;14.40;99.90;;;;;;5006543;28;20407;-67
2023/07/27 04:38:37;;;;;;;6.40;2.75;;;14.40;99.90;;;;;;5003399;28;20030;-65
2023/07/27 04:41:03;;;;;;;6.80;3.22;;;14.40;99.90;;;;;;4990587;28;20561;-67
2023/07/27 04:43:28;;;;;;;6.60;3.22;;;14.40;99.90;;;;;;5000862;28;20400;-65
2023/07/27 04:45:54;;;;;;;3.75;2.63;;;14.40;99.90;;;;;;5005623;28;20026;-66
2023/07/27 04:48:19;;;;;;;6.45;3.28;;;14.40;99.90;;;;;;5003913;28;20510;-66
2023/07/27 04:50:45;;;;;;;7.85;3.70;;;14.40;99.90;;;;;;5008740;28;20026;-66
2023/07/27 04:53:10;;;;;;;6.72;3.08;;;14.40;99.90;;;;;;5003473;28;20044;-66
2023/07/27 04:55:36;;;;;;;5.00;2.70;;;14.40;99.90;;;;;;5004453;28;20033;-66
2023/07/27 04:58:01;;;;;;;6.88;3.15;;;14.40;99.90;;;;;;5002252;28;20105;-66
2023/07/27 05:00:27;;;;;;;8.55;3.35;;;14.40;99.90;;;;;;5004380;28;20029;-65
2023/07/27 05:02:52;;;;;;;5.25;2.80;;;14.40;99.90;;;;;;5001538;28;20230;-64
2023/07/27 05:05:18;;;;;;;3.47;2.53;;;14.50;99.90;;;;;;4999754;28;20026;-65
2023/07/27 05:07:44;;;;;;;5.10;2.90;;;14.50;99.90;;;;;;5004723;28;20044;-66
2023/07/27 05:10:10;;;;;;;6.45;3.03;;;14.50;99.90;;;;;;5003151;28;20033;-64
2023/07/27 05:12:36;;;;;;;5.15;3.10;;;14.40;99.90;;;;;;5000383;28;20088;-66
2023/07/27 05:15:01;;;;;;;6.40;3.40;;;14.40;99.90;;;;;;4999542;28;20500;-65
2023/07/27 05:17:27;;;;;;;5.38;3.20;;;14.40;99.90;;;;;;5007577;28;20100;-65
2023/07/27 05:19:57;;;;;;;3.88;2.40;;;14.40;99.90;;;;;;5003479;28;20030;-64
2023/07/27 05:22:22;;;;;;;6.65;2.88;;;14.30;99.90;;;;;;5004486;28;20022;-67
2023/07/27 05:24:48;;;;;;;8.55;3.33;;;14.30;99.90;;;;;;5007693;28;20036;-65
2023/07/27 05:27:13;;;;;;;6.25;2.70;;;14.30;99.90;;;;;;5007481;28;20030;-63
2023/07/27 05:29:39;;;;;;;3.83;3.00;;;14.30;99.90;;;;;;4994292;28;20515;-65
2023/07/27 05:32:05;;;;;;;5.45;3.13;;;14.30;99.90;;;;;;5003999;28;20029;-65
2023/07/27 05:34:32;;;;;;;6.07;2.97;;;14.30;99.90;;;;;;5008441;28;20097;-65
2023/07/27 05:36:57;;;;;;;5.13;3.20;;;14.30;99.90;;;;;;5003634;28;20483;-65
2023/07/27 05:39:23;;;;;;;5.10;2.85;;;14.30;99.90;;;;;;4990568;28;20022;-64
2023/07/27 05:41:48;;;;;;;3.90;2.80;;;14.30;99.90;;;;;;5007353;28;20044;-64
2023/07/27 05:44:14;;;;;;;7.03;3.30;;;14.30;99.90;;;;;;5008433;28;20038;-64
2023/07/27 05:46:39;;;;;;;7.38;3.30;;;14.30;99.90;;;;;;5002255;28;20037;-66
2023/07/27 05:49:05;;;;;;;7.45;3.67;;;14.30;99.90;;;;;;5007822;28;20034;-66
2023/07/27 05:51:31;;;;;;;3.83;2.80;;;14.30;99.90;;;;;;5005015;28;20064;-65
2023/07/27 05:53:56;;;;;;;7.68;3.45;;;14.40;99.90;;;;;;5007677;28;20076;-63
2023/07/27 05:56:22;;;;;;;5.65;2.70;;;14.40;99.90;;;;;;5006816;28;20026;-64
2023/07/27 05:58:47;;;;;;;9.07;4.18;;;14.40;99.90;;;;;;5007151;28;20046;-65
2023/07/27 06:01:14;;;;;;;11.88;4.57;;;14.40;99.90;;;;;;5005897;28;20826;-65
2023/07/27 06:03:40;;;;;;;5.82;2.28;;;14.50;99.90;;;;;;5007743;28;20057;-64
2023/07/27 06:06:06;;;;;;;5.93;2.63;;;14.40;99.90;;;;;;5008306;28;20487;-65
2023/07/27 06:08:33;;;;;;;5.22;3.13;;;14.40;99.90;;;;;;5005064;28;20399;-65
2023/07/27 06:11:09;;;;;;;6.05;2.90;;;14.40;99.90;;;;;;5005434;28;20057;-65
2023/07/27 06:13:36;;;;;;;4.53;3.03;;;14.40;99.90;;;;;;4998964;28;20427;-66
2023/07/27 06:16:02;;;;;;;7.38;3.00;;;14.40;99.90;;;;;;4984145;28;20105;-65
2023/07/27 06:18:28;;;;;;;5.50;3.00;;;14.40;99.90;;;;;;4995227;28;20030;-65
2023/07/27 06:20:54;;;;;;;8.40;3.35;;;14.40;99.90;;;;;;5003478;28;20029;-66
2023/07/27 06:23:19;;;;;;;5.45;2.80;;;14.40;99.90;;;;;;5002021;28;20030;-65
2023/07/27 06:25:46;;;;;;;7.43;3.00;;;14.50;99.90;;;;;;5008605;28;20495;-65
2023/07/27 06:28:12;;;;;;;7.15;2.75;;;14.50;99.90;;;;;;5007183;28;20041;-63
2023/07/27 06:30:38;;;;;;;5.38;3.00;;;14.40;99.90;;;;;;5007845;28;20026;-67
2023/07/27 06:33:05;;;;;;;5.72;3.40;;;14.40;99.90;;;;;;5010629;28;20076;-66
2023/07/27 06:35:32;;;;;;;7.85;2.90;;;14.50;99.90;;;;;;4999154;28;20444;-65
2023/07/27 06:37:57;;;;;;;6.45;2.85;;;14.40;99.90;;;;;;5005888;28;20562;-65
2023/07/27 06:40:23;;;;;;;6.18;3.47;;;14.40;99.90;;;;;;4989810;28;20046;-65
2023/07/27 06:42:49;;;;;;;5.60;3.20;;;14.50;99.90;;;;;;5001822;28;20068;-65
2023/07/27 06:45:14;;;;;;;6.35;2.63;;;14.50;99.90;;;;;;5001359;28;20155;-66
2023/07/27 06:47:40;;;;;;;6.15;3.10;;;14.50;99.90;;;;;;4992877;28;20062;-65
2023/07/27 06:50:06;;;;;;;5.88;2.55;;;14.50;99.90;;;;;;5008252;28;20037;-66
2023/07/27 06:52:32;;;;;;;4.50;2.42;;;14.50;99.90;;;;;;5008423;28;20028;-66
2023/07/27 06:54:58;;;;;;;7.43;3.10;;;14.50;99.90;;;;;;5010366;28;20022;-64
2023/07/27 06:57:26;;;;;;;4.65;3.20;;;14.40;99.90;;;;;;5010808;28;20026;-65
2023/07/27 06:59:52;;;;;;;4.20;2.88;;;14.50;99.90;;;;;;5010617;28;20041;-65
2023/07/27 07:02:18;;;;;;;5.72;3.22;;;14.50;99.90;;;;;;5008220;28;20030;-65
2023/07/27 07:04:45;;;;;;;5.65;2.78;;;14.50;99.90;;;;;;5009506;28;20026;-65
2023/07/27 07:07:11;;;;;;;5.88;3.15;;;14.50;99.90;;;;;;5006224;28;20029;-66
2023/07/27 07:09:38;;;;;;;5.03;3.10;;;14.60;99.90;;;;;;5005574;28;20023;-66
2023/07/27 07:12:06;;;;;;;4.90;2.88;;;14.70;99.90;;;;;;5004424;28;20446;-65
2023/07/27 07:14:32;;;;;;;6.28;2.63;;;14.70;99.90;;;;;;5008315;28;20037;-66
2023/07/27 07:16:59;;;;;;;9.43;3.88;;;14.80;99.90;;;;;;4990531;28;20028;-67
2023/07/27 07:19:25;;;;;;;5.30;2.88;;;14.80;99.90;;;;;;5004872;28;20026;-65
2023/07/27 07:21:51;;;;;;;9.32;3.22;;;14.80;99.90;;;;;;5005551;28;20885;-64
2023/07/27 07:24:18;;;;;;;4.05;2.65;;;14.80;99.90;;;;;;5010112;28;20113;-65
2023/07/27 07:26:45;;;;;;;7.47;2.88;;;14.90;99.90;;;;;;5008128;28;20018;-67
2023/07/27 07:29:11;;;;;;;6.97;2.63;;;14.90;99.90;;;;;;5004225;28;20112;-63
2023/07/27 07:31:37;;;;;;;3.45;2.38;;;15.00;99.90;;;;;;5003772;28;20033;-65
2023/07/27 07:34:04;;;;;;;4.18;2.70;;;15.00;99.90;;;;;;5003790;28;20080;-66
2023/07/27 07:36:29;;;;;;;3.72;2.67;;;15.10;99.90;;;;;;5007131;28;20088;-66
2023/07/27 07:38:55;;;;;;;5.50;3.00;;;15.10;99.90;;;;;;5009607;28;20026;-65
2023/07/27 07:41:20;;;;;;;3.55;2.60;;;15.10;99.90;;;;;;4994498;28;20557;-65
2023/07/27 07:43:46;;;;;;;5.00;2.65;;;15.10;99.90;;;;;;4995315;28;20050;-66
2023/07/27 07:46:12;;;;;;;4.53;2.55;;;15.20;99.90;;;;;;5010377;28;20212;-65
2023/07/27 07:48:39;;;;;;;8.25;2.28;;;15.20;99.90;;;;;;5010204;28;20117;-65
2023/07/27 07:51:14;;;;;;;4.88;2.45;;;15.20;99.90;;;;;;5007375;28;20037;-66
2023/07/27 07:53:41;;;;;;;3.80;2.30;;;15.20;99.90;;;;;;4985236;28;20484;-66
2023/07/27 07:56:15;;;;;;;5.75;2.35;;;15.30;99.90;;;;;;5009928;28;20053;-65
2023/07/27 07:58:40;;;;;;;;;;;15.30;99.90;;;;;;5002750;28;20529;-62
2023/07/27 08:01:06;;;;;;;3.33;2.40;;;15.30;99.90;;;;;;4996428;28;19913;-66
2023/07/27 08:03:32;;;;;;;2.95;2.65;;;15.30;99.90;;;;;;5005912;28;20483;-65
2023/07/27 08:05:58;;;;;;;5.30;2.58;;;15.40;99.90;;;;;;4996641;28;20028;-66
2023/07/27 08:08:24;;;;;;;2.80;2.13;;;15.50;99.90;;;;;;5004091;28;20057;-66
2023/07/27 08:10:49;;;;;;;6.40;2.58;;;15.40;99.90;;;;;;5003532;28;20046;-65
2023/07/27 08:13:15;;;;;;;3.90;2.42;;;15.50;99.90;;;;;;5003444;28;21743;-66
2023/07/27 08:15:49;;;;;;;4.85;3.55;;;15.50;99.90;;;;;;5007705;28;20034;-65
2023/07/27 08:18:14;;;;;;;5.72;5.13;;;15.50;99.90;;;;;;5001926;28;20034;-65
2023/07/27 08:20:40;;;;;;;5.13;3.38;;;15.40;99.90;;;;;;5005238;28;20392;-65
2023/07/27 08:23:05;;;;;;;3.65;2.88;;;15.40;99.90;;;;;;5004351;28;20034;-65
2023/07/27 08:25:39;;;;;;;5.07;3.83;;;15.30;99.90;;;;;;5003518;28;20029;-65
2023/07/27 08:28:05;;;;;;;;;;;15.40;99.90;;;;;;5007784;28;20407;-66
2023/07/27 08:30:32;;;;;;;5.32;2.38;;;15.40;99.90;;;;;;5001015;28;19928;-65
2023/07/27 08:32:58;;;;;;;2.90;2.28;;;15.50;99.90;;;;;;5005486;28;20059;-67
2023/07/27 08:35:23;;;;;;;7.95;2.25;;;15.60;99.90;;;;;;5006538;28;20057;-65
2023/07/27 08:37:49;;;;;;;4.13;2.35;;;15.60;99.90;;;;;;5006033;28;20040;-65
2023/07/27 08:40:16;;;;;;;4.43;2.47;;;15.70;99.90;;;;;;5001416;28;20476;-65
2023/07/27 08:42:46;;;;;;;2.97;2.60;;;15.70;99.90;;;;;;4982578;28;20066;-66
2023/07/27 08:45:16;;;;;;;4.95;2.63;;;15.80;99.90;;;;;;5004013;28;20040;-66
2023/07/27 08:47:42;;;;;;;3.58;2.85;;;15.80;99.90;;;;;;5009226;28;20101;-64
2023/07/27 08:50:08;;;;;;;3.30;1.85;;;15.80;99.90;;;;;;5007241;28;20029;-65
2023/07/27 08:52:34;;;;;;;3.28;2.67;;;15.80;99.90;;;;;;5003058;28;20029;-65
2023/07/27 08:54:59;;;;;;;2.40;2.20;;;15.80;99.90;;;;;;4999214;28;20665;-64
2023/07/27 08:57:25;;;;;;;3.53;2.30;;;15.90;99.90;;;;;;5003186;28;20026;-65
2023/07/27 08:59:51;;;;;;;3.78;1.85;;;15.90;99.90;;;;;;5001115;28;20080;-65
2023/07/27 09:02:17;;;;;;;3.10;2.40;;;15.90;99.90;;;;;;5006916;28;20479;-65
2023/07/27 09:04:42;;;;;;;3.08;2.20;;;16.00;99.90;;;;;;5002711;28;20030;-65
2023/07/27 09:07:08;;;;;;;3.30;1.88;;;16.00;99.90;;;;;;5006497;28;20473;-65
2023/07/27 09:09:34;;;;;;;3.53;2.45;;;16.00;99.90;;;;;;5006935;28;20384;-65
2023/07/27 09:12:03;;;;;;;2.75;2.40;;;16.10;99.90;;;;;;4999632;28;20054;-66
2023/07/27 09:14:34;;;;;;;2.55;2.10;;;16.20;99.90;;;;;;5001199;28;20022;-66
2023/07/27 09:17:00;;;;;;;3.45;2.63;;;16.20;99.90;;;;;;5000160;28;20026;-67
2023/07/27 09:19:27;;;;;;;4.50;2.45;;;16.30;99.90;;;;;;5007878;28;20030;-66
2023/07/27 09:21:56;;;;;;;2.35;2.03;;;16.40;99.90;;;;;;5005194;28;21789;-65
2023/07/27 09:24:23;;;;;;;2.75;1.95;;;16.40;99.90;;;;;;5003908;28;20026;-66
2023/07/27 09:26:52;;;;;;;3.53;1.98;;;16.50;99.90;;;;;;5003454;28;20559;-65
2023/07/27 09:29:20;;;;;;;2.90;1.67;;;16.50;99.90;;;;;;4988906;28;20041;-65
2023/07/27 09:31:57;;;;;;;2.72;1.98;;;16.50;99.90;;;;;;5007613;28;20056;-64
2023/07/27 09:34:23;;;;;;;4.53;2.08;;;16.60;99.90;;;;;;5009165;28;20026;-65
2023/07/27 09:36:48;;;;;;;2.40;1.98;;;16.60;99.90;;;;;;5007194;28;20026;-66
2023/07/27 09:39:17;;;;;;;4.22;1.90;;;16.60;99.90;;;;;;5007594;28;20026;-65
2023/07/27 09:41:45;;;;;;;2.95;2.00;;;16.60;99.90;;;;;;5003580;28;20038;-65
2023/07/27 09:44:15;;;;;;;3.03;1.63;;;16.70;99.90;;;;;;4988715;28;20053;-66
2023/07/27 09:46:41;;;;;;;5.53;1.90;;;16.70;99.90;;;;;;5005212;28;20467;-66
2023/07/27 09:49:08;;;;;;;3.20;2.38;;;16.70;99.90;;;;;;5009485;28;20048;-65
2023/07/27 09:51:33;;;;;;;3.38;2.25;;;16.80;99.90;;;;;;5008275;28;20038;-65
2023/07/27 09:54:00;;;;;;;2.92;2.10;;;16.80;99.90;;;;;;5009147;28;20041;-65
2023/07/27 09:56:27;;;;;;;3.47;2.20;;;16.90;99.90;;;;;;5010268;28;20442;-66
2023/07/27 09:58:53;;;;;;;2.33;1.90;;;17.00;99.90;;;;;;5012664;28;20515;-65
2023/07/27 10:01:19;;;;;;;3.70;2.38;;;17.00;99.90;;;;;;5009065;28;20108;-66
2023/07/27 10:03:45;;;;;;;3.92;2.70;;;17.10;99.90;;;;;;5010415;28;20029;-65
2023/07/27 10:06:16;;;;;;;5.15;2.78;;;17.00;99.90;;;;;;5006354;28;20037;-66
2023/07/27 10:08:43;;;;;;;2.65;2.25;;;17.00;99.90;;;;;;5007980;28;20088;-66
2023/07/27 10:11:09;;;;;;;2.83;2.10;;;16.90;99.90;;;;;;5012320;28;20430;-66
2023/07/27 10:13:43;;;;;;;2.60;2.05;;;17.00;99.90;;;;;;5009756;28;20026;-65
2023/07/27 10:16:11;;;;;;;4.43;2.65;;;17.00;99.90;;;;;;5010054;28;20022;-65
2023/07/27 10:18:42;;;;;;;4.85;2.33;;;16.90;99.90;;;;;;5012093;28;20125;-65
2023/07/27 10:21:27;;;;;;;3.92;2.90;;;17.10;99.90;;;;;;5008623;28;20068;-65
2023/07/27 10:24:00;;;;;;;5.95;3.83;;;17.10;99.90;;;;;;5002024;28;20492;-65
2023/07/27 10:26:46;;;;;;;4.95;2.38;;;17.10;99.90;;;;;;5010023;28;20056;-65
2023/07/27 10:29:23;;;;;;;2.75;2.20;;;17.20;99.90;;;;;;5009848;28;20084;-65
2023/07/27 10:32:10;;;;;;;4.28;3.15;;;17.30;99.90;;;;;;5003034;28;20578;-65
2023/07/27 10:34:38;;;;;;;3.78;2.58;;;17.40;99.90;;;;;;4998357;28;20079;-66
2023/07/27 10:37:05;;;;;;;3.75;2.42;;;17.50;99.90;;;;;;5004683;28;20063;-65
2023/07/27 10:39:34;;;;;;;4.55;2.92;;;17.40;99.90;;;;;;5005822;28;20037;-65
2023/07/27 10:42:03;;;;;;;4.20;2.53;;;17.60;99.90;;;;;;5008926;28;20028;-65
2023/07/27 10:44:45;;;;;;;5.45;3.13;;;17.60;99.90;;;;;;4990081;28;20038;-65
2023/07/27 10:47:12;;;;;;;3.95;2.67;;;17.50;99.90;;;;;;5005171;28;20122;-66
2023/07/27 10:49:43;;;;;;;3.75;2.63;;;17.50;99.90;;;;;;5007648;28;20030;-65
2023/07/27 10:52:09;;;;;;;3.72;2.55;;;17.60;99.90;;;;;;5006686;28;20030;-65
2023/07/27 10:54:39;;;;;;;3.83;3.15;;;17.50;99.90;;;;;;5002498;28;20113;-65
2023/07/27 10:57:09;;;;;;;3.00;2.58;;;17.40;99.90;;;;;;5005039;28;20022;-66
2023/07/27 10:59:41;;;;;;;3.53;2.85;;;17.50;99.90;;;;;;5009407;28;20442;-65
2023/07/27 11:02:17;;;;;;;3.40;2.58;;;17.50;99.90;;;;;;5005861;28;20079;-66
2023/07/27 11:04:43;;;;;;;5.03;2.75;;;17.60;99.90;;;;;;5005961;28;20121;-66
2023/07/27 11:07:10;;;;;;;4.20;2.92;;;17.60;99.90;;;;;;5005573;28;20790;-66
2023/07/27 11:09:37;;;;;;;4.53;2.60;;;17.70;99.90;;;;;;5006600;28;20040;-65
2023/07/27 11:12:03;;;;;;;3.97;2.58;;;17.60;99.90;;;;;;5006916;28;20113;-65
2023/07/27 11:14:29;;;;;;;6.38;2.75;;;17.70;99.90;;;;;;5007972;28;21431;-66
2023/07/27 11:16:55;;;;;;;3.20;2.72;;;17.60;99.90;;;;;;5011893;28;20468;-65
2023/07/27 11:19:21;;;;;;;4.22;2.92;;;17.50;99.90;;;;;;5009400;28;20029;-66
2023/07/27 11:21:49;;;;;;;4.65;2.80;;;17.50;99.90;;;;;;5007836;28;20037;-65
2023/07/27 11:24:16;;;;;;;4.07;2.90;;;17.40;99.90;;;;;;4992064;28;20235;-65
2023/07/27 11:26:42;;;;;;;4.80;3.30;;;17.50;99.90;;;;;;5005311;28;20029;-65
2023/07/27 11:29:09;;;;;;;3.83;3.20;;;17.40;99.90;;;;;;5001769;28;20030;-65
2023/07/27 11:31:35;;;;;;;7.82;4.63;;;17.50;99.90;;;;;;5002812;28;20030;-66
2023/07/27 11:34:02;;;;;;;5.50;2.80;;;17.40;99.90;;;;;;5004673;28;20039;-66
2023/07/27 11:36:34;;;;;;;3.50;3.10;;;17.40;99.90;;;;;;5003039;28;20822;-66
2023/07/27 11:39:02;;;;;;;3.67;2.90;;;17.40;99.90;;;;;;5007118;28;20068;-66
2023/07/27 11:41:30;;;;;;;7.97;4.00;;;17.40;99.90;;;;;;5005417;28;20114;-66
2023/07/27 11:43:57;;;;;;;4.05;2.55;;;17.60;99.90;;;;;;4998778;28;20022;-66
2023/07/27 11:46:27;;;;;;;2.92;2.45;;;17.70;99.90;;;;;;4991676;28;20115;-66
2023/07/27 11:48:53;;;;;;;3.90;2.75;;;17.70;99.90;;;;;;5011370;28;20024;-66
2023/07/27 11:51:19;;;;;;;3.58;2.40;;;17.70;99.90;;;;;;5011067;28;20034;-66
2023/07/27 11:53:46;;;;;;;5.07;2.50;;;17.80;99.90;;;;;;5011462;28;20033;-67
2023/07/27 11:56:12;;;;;;;4.53;2.65;;;17.90;99.90;;;;;;5011083;28;20018;-66
2023/07/27 11:58:38;;;;;;;2.80;2.33;;;18.00;99.90;;;;;;5011009;28;20391;-67
2023/07/27 12:01:04;;;;;;;4.80;2.28;;;18.10;99.90;;;;;;5007209;28;20026;-67
2023/07/27 12:03:34;;;;;;;2.60;1.95;;;18.10;99.90;;;;;;5008960;28;20574;-66
2023/07/27 12:06:03;;;;;;;2.00;1.80;;;18.10;99.90;;;;;;5000418;28;20026;-66
2023/07/27 12:08:30;;;;;;;3.35;2.33;;;18.20;99.90;;;;;;4997925;28;20635;-68
2023/07/27 12:11:02;;;;;;;2.50;2.05;;;18.30;99.90;;;;;;5001435;28;20031;-66
2023/07/27 12:13:27;;;;;;;3.13;2.20;;;18.40;99.90;;;;;;4997161;28;20031;-66
2023/07/27 12:16:01;;;;;;;2.90;2.40;;;18.40;99.90;;;;;;5002630;28;20029;-66
2023/07/27 12:18:28;;;;;;;;;;;18.40;99.90;;;;;;5005611;28;20021;-67
2023/07/27 12:20:54;;;;;;;3.40;2.10;;;18.60;99.90;;;;;;5007142;28;19956;-65
2023/07/27 12:23:21;;;;;;;3.40;2.17;;;18.50;99.90;;;;;;5000563;28;20582;-66
2023/07/27 12:25:47;;;;;;;4.78;2.25;;;18.50;99.90;;;;;;4992832;28;20030;-66
2023/07/27 12:28:13;;;;;;;4.63;2.08;;;18.50;99.90;;;;;;4998560;28;20038;-64
2023/07/27 12:30:39;;;;;;;2.88;1.88;;;18.60;99.90;;;;;;4997994;28;20718;-66
2023/07/27 12:33:04;;;;;;;2.80;2.15;;;18.60;99.90;;;;;;5004602;28;20018;-66
2023/07/27 12:35:30;;;;;;;2.63;2.08;;;18.60;99.90;;;;;;4998944;28;20022;-68
2023/07/27 12:37:57;;;;;;;2.42;2.22;;;18.60;99.90;;;;;;5007247;28;20067;-66
2023/07/27 12:40:24;;;;;;;3.42;2.25;;;18.50;99.90;;;;;;5009308;28;20037;-66
2023/07/27 12:42:49;;;;;;;2.88;2.13;;;18.50;99.90;;;;;;5006458;28;20438;-65
2023/07/27 12:45:16;;;;;;;4.30;2.55;;;18.50;99.90;;;;;;4992648;28;20085;-67
2023/07/27 12:47:42;;;;;;;2.53;2.00;;;18.60;99.90;;;;;;5008373;28;20080;-66